Time;durP1;ratioP1;P1;durP2;ratioP2;P2;SDS_P1;SDS_P2;PMS_P1;PMS_P2;Temp;Humidity;BMP_temperature;BMP_pressure;BME280_temperature;BME280_humidity;BME280_pressure;Samples;Min_cycle;Max_cycle;Signal;HPM_P1;HPM_P2
2022/02/10 00:05:00;;;;;;;6.80;6.30;;;1.40;99.90;;;2.06;92.40;98695.25;5197367;28;20282;-67
2022/02/10 00:08:12;;;;;;;6.20;5.70;;;1.30;99.90;;;2.15;91.87;98687.75;5196188;28;20801;-68
2022/02/10 00:14:04;;;;;;;6.30;5.80;;;1.30;99.90;;;2.08;91.48;98678.66;5195845;28;20212;-67
2022/02/10 00:17:09;;;;;;;6.33;5.73;;;1.20;99.90;;;2.06;91.59;98687.69;5236592;22;20248;-64
2022/02/10 00:20:05;;;;;;;6.27;5.77;;;1.20;99.90;;;2.02;91.39;98680.53;5224904;28;20201;-65
2022/02/10 00:22:57;;;;;;;6.77;6.10;;;1.20;99.90;;;2.01;92.20;98687.22;5226084;28;20199;-65
2022/02/10 00:34:14;;;;;;;5.97;5.47;;;1.10;99.90;;;2.00;90.43;98684.53;5225795;28;20210;-65
2022/02/10 00:36:58;;;;;;;6.17;5.67;;;1.00;99.90;;;1.86;91.37;98679.69;5225105;28;20216;-65
2022/02/10 00:39:48;;;;;;;8.27;5.87;;;1.00;99.90;;;1.77;92.53;98670.47;5212329;28;20202;-65
2022/02/10 00:42:21;;;;;;;6.50;6.03;;;1.00;99.90;;;1.75;92.55;98666.88;5228528;28;20196;-65
2022/02/10 00:44:54;;;;;;;8.17;7.43;;;1.00;99.90;;;1.76;92.85;98673.69;5228529;28;20198;-65
2022/02/10 00:47:30;;;;;;;7.97;7.27;;;1.00;99.90;;;1.83;93.21;98671.81;5228627;28;20215;-64
2022/02/10 00:50:05;;;;;;;6.00;5.47;;;1.10;99.90;;;1.86;92.93;98667.09;5224132;28;20214;-64
2022/02/10 00:52:42;;;;;;;9.50;7.50;;;1.10;99.90;;;1.85;92.02;98663.66;5228550;28;20567;-64
2022/02/10 00:55:18;;;;;;;7.50;6.80;;;1.00;99.90;;;1.83;93.46;98662.63;5224631;28;20224;-65
2022/02/10 00:57:51;;;;;;;7.87;7.07;;;1.10;99.90;;;1.80;94.01;98660.69;5223141;28;20701;-65
2022/02/10 01:31:39;;;;;;;7.97;7.23;;;1.00;99.90;;;1.60;93.97;98640.06;5220737;28;20207;-65
2022/02/10 01:34:12;;;;;;;8.50;7.80;;;0.90;99.90;;;1.64;94.17;98643.84;5223539;28;20202;-65
2022/02/10 01:36:45;;;;;;;11.17;10.07;;;1.00;99.90;;;1.60;94.27;98630.00;5223701;28;21555;-65
2022/02/10 01:39:23;;;;;;;9.67;8.70;;;0.90;99.90;;;1.62;94.17;98628.53;5224510;28;20193;-65
2022/02/10 01:42:39;;;;;;;8.13;7.50;;;1.00;99.90;;;1.67;95.03;98641.63;5220096;28;20738;-65
2022/02/10 02:05:08;;;;;;;8.20;7.40;;;0.80;99.90;;;1.49;93.33;98607.88;5227033;28;20228;-65
2022/02/10 02:07:41;;;;;;;7.50;6.90;;;0.80;99.90;;;1.48;94.00;98608.59;5223161;28;20984;-65
2022/02/10 02:10:14;;;;;;;7.20;6.67;;;0.70;99.90;;;1.47;93.62;98601.78;5219802;28;20204;-65
2022/02/10 02:12:49;;;;;;;7.00;6.50;;;0.70;99.90;;;1.42;93.41;98600.41;5223655;28;20208;-65
2022/02/10 02:15:25;;;;;;;6.83;6.13;;;0.60;99.90;;;1.48;92.48;98603.53;5220536;28;20225;-65
2022/02/10 02:17:58;;;;;;;7.17;6.53;;;0.60;99.90;;;1.36;93.39;98595.63;5221738;28;20212;-65
2022/02/10 02:20:31;;;;;;;6.70;6.10;;;0.60;99.90;;;1.41;93.43;98596.09;5223941;28;20205;-65
2022/02/10 02:23:06;;;;;;;8.63;6.87;;;0.60;99.90;;;1.46;92.70;98598.38;5227057;28;20288;-65
2022/02/10 02:25:39;;;;;;;7.63;6.53;;;0.60;99.90;;;1.42;92.51;98593.72;5223155;28;20222;-65
2022/02/10 02:28:14;;;;;;;7.23;6.53;;;0.60;99.90;;;1.34;93.27;98590.44;5226390;28;20255;-65
2022/02/10 02:30:51;;;;;;;7.13;6.40;;;0.60;99.90;;;1.19;92.33;98588.81;5224753;28;20538;-65
2022/02/10 02:37:02;;;;;;;8.27;7.57;;;0.50;99.90;;;1.15;93.03;98571.63;5183272;28;20220;-65
2022/02/10 03:05:25;;;;;;;8.43;7.67;;;0.30;99.90;;;1.04;94.02;98552.00;5227731;28;20225;-65
2022/02/10 03:08:00;;;;;;;8.43;7.73;;;0.40;99.90;;;1.05;93.64;98543.69;5226486;28;20220;-65
2022/02/10 03:10:57;;;;;;;7.70;7.00;;;0.40;99.90;;;1.09;92.97;98546.69;5223922;28;20657;-65
2022/02/10 03:13:36;;;;;;;7.80;7.10;;;0.30;99.90;;;1.13;93.19;98548.78;5225906;28;20208;-65
2022/02/10 03:16:37;;;;;;;8.40;7.60;;;0.40;99.90;;;1.12;92.55;98553.69;5223474;28;20799;-65
2022/02/10 03:19:27;;;;;;;9.33;8.30;;;0.30;99.90;;;1.07;92.58;98553.19;5224421;28;20564;-65
2022/02/10 04:02:18;;;;;;;7.60;7.00;;;0.00;99.90;;;0.71;92.71;98570.34;5220316;28;20196;-65
2022/02/10 04:05:24;;;;;;;7.97;7.27;;;0.00;99.90;;;0.67;93.21;98573.28;5225817;28;20207;-65
2022/02/10 04:08:04;;;;;;;8.67;7.97;;;-0.10;99.90;;;0.65;93.91;98582.25;5226389;28;20545;-65
2022/02/10 04:11:06;;;;;;;9.30;8.27;;;0.00;99.90;;;0.70;94.06;98586.16;5224011;28;20199;-65
2022/02/10 04:13:45;;;;;;;8.73;7.87;;;0.00;99.90;;;0.73;93.44;98586.50;5221126;28;20205;-65
2022/02/10 04:16:22;;;;;;;8.53;7.73;;;0.00;99.90;;;0.75;94.03;98587.56;5224294;28;20227;-65
2022/02/10 04:22:02;;;;;;;8.70;7.87;;;0.00;99.90;;;0.82;93.22;98574.88;5225389;28;20201;-65
2022/02/10 04:25:01;;;;;;;8.43;7.63;;;0.00;99.90;;;0.82;92.93;98564.81;5225516;28;20195;-65
2022/02/10 04:27:57;;;;;;;8.67;8.07;;;0.00;99.90;;;0.68;92.54;98570.00;5224950;28;20687;-65
2022/02/10 04:39:48;;;;;;;9.07;7.17;;;0.00;99.90;;;0.71;93.25;98574.47;5224955;28;20209;-65
2022/02/10 04:54:12;;;;;;;9.00;8.20;;;-0.20;99.90;;;0.57;92.53;98550.38;5224278;28;20203;-65
2022/02/10 04:57:04;;;;;;;7.80;7.20;;;-0.20;99.90;;;0.52;92.30;98556.56;5223155;28;20237;-65
2022/02/10 04:59:58;;;;;;;8.43;7.50;;;-0.30;99.90;;;0.45;92.44;98555.88;5223576;28;20207;-65
2022/02/10 05:08:53;;;;;;;9.00;8.20;;;-0.40;99.90;;;0.33;93.10;98543.63;5228112;28;20623;-65
2022/02/10 05:20:19;;;;;;;9.63;8.73;;;-0.20;99.90;;;0.41;93.87;98543.72;5230380;28;20198;-64
2022/02/10 05:23:15;;;;;;;9.07;8.17;;;-0.30;99.90;;;0.40;93.71;98539.44;5224496;28;20209;-67
2022/02/10 05:32:00;;;;;;;8.73;7.93;;;-0.20;99.90;;;0.46;93.84;98546.75;5223146;28;20801;-65
2022/02/10 05:34:38;;;;;;;9.00;8.10;;;-0.30;99.90;;;0.50;93.98;98542.91;5223047;28;20587;-65
2022/02/10 05:37:11;;;;;;;8.10;7.40;;;-0.20;99.90;;;0.39;93.68;98537.63;5220606;28;20195;-65
2022/02/10 05:39:47;;;;;;;8.73;8.03;;;-0.30;99.90;;;0.36;94.03;98542.34;5230568;28;20660;-64
2022/02/10 05:45:22;;;;;;;8.67;7.93;;;-0.40;99.90;;;0.34;93.81;98538.75;5183277;28;20234;-67
2022/02/10 05:48:20;;;;;;;8.67;7.87;;;-0.40;99.90;;;0.35;93.68;98537.16;5226037;28;21852;-67
2022/02/10 05:51:26;;;;;;;10.37;9.47;;;-0.40;99.90;;;0.29;93.61;98534.00;5224516;28;20608;-64
2022/02/10 05:54:06;;;;;;;9.20;8.37;;;-0.40;99.90;;;0.31;93.74;98518.31;5220932;28;20203;-64
2022/02/10 05:56:41;;;;;;;8.00;7.30;;;-0.40;99.90;;;0.27;93.24;98523.75;5222151;28;20223;-65
2022/02/10 05:59:49;;;;;;;7.83;7.13;;;-0.50;99.90;;;0.27;93.44;98528.78;5219727;28;20207;-66
2022/02/10 06:02:49;;;;;;;8.43;7.67;;;-0.40;99.90;;;0.32;93.94;98522.63;5221024;28;20210;-65
2022/02/10 06:48:59;;;;;;;10.07;9.07;;;-0.60;99.90;;;0.13;93.25;98538.97;5218461;28;20222;-68
2022/02/10 06:51:40;;;;;;;9.80;8.90;;;-0.60;99.90;;;0.09;93.80;98546.94;5224402;28;20201;-68
2022/02/10 06:54:22;;;;;;;11.23;10.23;;;-0.50;99.90;;;0.16;94.02;98544.34;5226326;28;20220;-67
2022/02/10 07:03:06;;;;;;;12.47;11.13;;;-0.50;99.90;;;0.20;94.24;98546.44;5225393;28;20561;-68
2022/02/10 07:06:00;;;;;;;10.97;9.87;;;-0.50;99.90;;;0.30;93.91;98551.72;5223173;28;20239;-68
2022/02/10 07:08:50;;;;;;;10.83;9.83;;;-0.30;99.90;;;0.40;94.46;98549.50;5225044;28;20224;-68
2022/02/10 07:11:50;;;;;;;10.30;9.33;;;-0.20;99.90;;;0.60;94.33;98545.66;5226691;28;20201;-68
2022/02/10 07:17:22;;;;;;;11.30;9.83;;;-0.10;99.90;;;0.81;93.48;98537.88;5221515;28;20233;-69
2022/02/10 07:49:01;;;;;;;10.03;9.10;;;1.70;99.90;;;2.61;86.37;98498.13;5226191;28;20212;-66
2022/02/10 07:51:59;;;;;;;9.57;8.77;;;1.90;99.90;;;2.57;84.85;98496.03;5225306;28;20239;-66
2022/02/10 07:54:40;;;;;;;10.20;9.27;;;1.90;99.90;;;2.74;85.77;98488.47;5225873;28;20211;-67
2022/02/10 07:57:22;;;;;;;9.87;8.83;;;2.10;99.90;;;2.98;85.89;98489.09;5217940;28;20229;-67
2022/02/10 08:00:29;;;;;;;10.33;9.40;;;2.40;99.90;;;3.23;85.43;98482.19;5225003;28;20592;-67
2022/02/10 08:57:25;;;;;;;21.47;14.93;;;6.30;99.90;;;7.13;74.79;98485.22;5218167;28;20232;-67
2022/02/10 09:05:51;;;;;;;11.07;9.97;;;6.90;99.90;;;7.60;73.96;98480.47;5223083;28;20209;-67
2022/02/10 09:14:56;;;;;;;12.60;11.30;;;7.50;99.90;;;8.19;72.70;98495.19;5159966;28;20350;-67
2022/02/10 10:01:20;;;;;;;6.20;4.45;;;10.70;99.90;;;11.26;59.43;98464.91;5205452;28;20239;-67
2022/02/10 10:03:56;;;;;;;6.60;5.30;;;10.90;99.90;;;11.44;57.99;98459.19;5221842;28;20212;-67
2022/02/10 10:06:52;;;;;;;6.68;4.55;;;11.00;99.90;;;11.61;56.93;98466.25;5222474;28;20271;-68
2022/02/10 10:12:58;;;;;;;5.25;4.50;;;11.20;99.90;;;11.74;56.22;98465.38;5204051;28;20211;-68
2022/02/10 10:15:45;;;;;;;7.53;5.65;;;11.30;99.90;;;11.87;55.58;98459.34;5221415;28;20197;-68
2022/02/10 10:18:41;;;;;;;6.22;4.53;;;11.40;99.90;;;11.83;55.73;98463.38;5224159;28;20201;-68
2022/02/10 10:21:29;;;;;;;6.53;4.80;;;11.50;99.90;;;11.94;55.23;98457.25;5223635;28;20276;-68
2022/02/10 10:24:41;;;;;;;6.75;5.28;;;11.50;99.90;;;12.00;55.16;98461.00;5224269;28;20426;-68
2022/02/10 10:27:33;;;;;;;5.78;5.10;;;11.50;99.90;;;12.10;55.36;98468.44;5215676;28;20217;-68
2022/02/10 10:51:06;;;;;;;6.20;5.40;;;12.00;99.40;;;12.66;53.76;98453.00;5223497;28;20694;-68
2022/02/10 10:53:48;;;;;;;5.95;5.20;;;12.10;99.10;;;12.73;53.42;98451.66;5223246;28;20595;-68
2022/02/10 10:56:27;;;;;;;8.50;5.35;;;12.10;98.70;;;12.67;53.17;98444.50;5225944;28;20227;-68
2022/02/10 10:59:18;;;;;;;5.88;5.05;;;12.00;98.90;;;12.68;53.96;98440.28;5227082;28;20672;-69
2022/02/10 11:38:28;;;;;;;6.40;5.20;;;11.30;99.90;;;12.06;58.55;98413.56;5224877;28;20679;-69
2022/02/10 11:41:30;;;;;;;5.40;4.90;;;11.30;99.90;;;12.04;57.87;98409.13;5226283;28;20288;-69
2022/02/10 12:32:53;;;;;;;9.15;7.05;;;10.40;99.90;;;11.13;63.26;98421.44;5216819;28;20210;-69
2022/02/10 12:38:32;;;;;;;8.60;7.38;;;10.40;99.90;;;11.08;63.42;98419.38;5209670;28;20213;-69
2022/02/10 13:49:35;;;;;;;9.88;8.77;;;9.70;99.90;;;10.43;67.03;98416.84;5214625;28;20227;-68
2022/02/10 14:09:12;;;;;;;10.82;8.50;;;9.70;99.90;;;10.73;66.66;98417.97;5212569;28;20628;-67
2022/02/10 14:12:35;;;;;;;10.13;9.02;;;9.70;99.90;;;10.56;66.99;98424.53;5210687;28;20197;-67
2022/02/10 14:15:01;;;;;;;10.00;8.63;;;9.60;99.90;;;10.36;66.90;98429.22;5214922;28;20459;-67
2022/02/10 14:17:44;;;;;;;9.25;8.32;;;9.40;99.90;;;10.42;67.34;98432.97;5210994;28;20642;-67
2022/02/10 14:20:37;;;;;;;9.05;8.10;;;9.50;99.90;;;10.35;67.49;98427.41;5221455;28;20194;-67
2022/02/10 14:25:38;;;;;;;9.45;8.25;;;9.40;99.90;;;10.33;68.51;98423.91;5213418;28;20217;-67
2022/02/10 14:26:24;;;;;;;10.02;8.52;;;9.30;99.90;;;10.54;67.96;98428.66;5212706;28;20229;-68
2022/02/10 14:28:58;;;;;;;9.43;7.90;;;9.40;99.90;;;10.40;67.19;98439.63;5222681;28;20222;-67
2022/02/10 14:31:33;;;;;;;9.25;7.88;;;9.40;99.90;;;10.26;68.47;98431.88;5218005;28;20209;-67
2022/02/10 14:34:07;;;;;;;9.32;8.38;;;9.20;99.90;;;10.23;68.33;98434.22;5215805;28;20194;-67
2022/02/10 14:36:44;;;;;;;9.32;7.97;;;9.20;99.90;;;10.18;68.54;98439.81;5214194;28;20295;-67
2022/02/10 14:39:41;;;;;;;9.00;8.10;;;9.20;99.90;;;10.18;68.23;98438.13;5207383;28;20304;-67
2022/02/10 15:56:59;;;;;;;11.10;9.97;;;7.80;99.90;;;8.72;72.66;98461.00;5200488;28;20205;-67
2022/02/10 16:11:00;;;;;;;12.87;10.97;;;7.70;99.90;;;8.60;72.80;98469.41;5199114;28;20587;-67
2022/02/10 16:19:25;;;;;;;13.53;11.17;;;7.60;99.90;;;8.62;73.25;98472.97;5203924;28;20217;-67
2022/02/10 16:22:02;;;;;;;13.00;11.70;;;7.60;99.90;;;8.45;73.86;98464.94;5191516;28;20206;-67
2022/02/10 16:24:45;;;;;;;12.17;10.90;;;7.50;99.90;;;8.37;74.14;98463.44;5193372;28;20300;-67
2022/02/10 16:27:23;;;;;;;12.87;10.60;;;7.50;99.90;;;8.24;74.66;98468.38;5203309;28;20847;-66
2022/02/10 16:30:03;;;;;;;12.60;11.03;;;7.40;99.90;;;8.57;73.83;98464.97;5201476;28;20321;-67
2022/02/10 16:32:41;;;;;;;11.17;10.07;;;7.50;99.90;;;8.30;73.84;98468.88;5200612;28;20212;-67
2022/02/10 16:35:19;;;;;;;14.23;12.70;;;7.40;99.90;;;8.31;74.62;98465.53;5202077;28;20300;-66
2022/02/10 16:37:57;;;;;;;11.50;10.33;;;7.40;99.90;;;8.26;74.70;98467.72;5200598;28;20288;-67
2022/02/10 16:40:35;;;;;;;11.40;10.27;;;7.40;99.90;;;8.23;74.74;98464.94;5205636;28;20284;-66
2022/02/10 16:43:13;;;;;;;12.10;10.90;;;7.40;99.90;;;8.35;74.23;98471.00;5198630;28;20273;-66
2022/02/10 16:45:54;;;;;;;12.70;10.57;;;7.30;99.90;;;8.28;74.71;98475.50;5205124;28;20283;-66
2022/02/10 16:48:33;;;;;;;12.00;10.80;;;7.40;99.90;;;8.33;74.62;98469.09;5202031;28;20324;-66
2022/02/10 16:51:11;;;;;;;14.03;12.23;;;7.40;99.90;;;8.30;74.67;98479.06;5210834;28;20300;-66
2022/02/10 16:53:53;;;;;;;11.83;10.40;;;7.30;99.90;;;8.23;74.79;98467.50;5196906;28;20284;-66
2022/02/10 16:56:39;;;;;;;16.30;14.00;;;7.30;99.90;;;8.33;74.94;98469.09;5197617;28;20292;-65
2022/02/10 16:59:30;;;;;;;14.07;12.50;;;7.30;99.90;;;8.25;74.60;98460.88;5198083;28;20240;-66
2022/02/10 17:02:41;;;;;;;14.03;12.27;;;7.20;99.90;;;8.23;75.21;98461.53;5198926;28;20276;-65
2022/02/10 17:05:32;;;;;;;27.90;21.77;;;7.30;99.90;;;8.18;75.03;98463.72;5199115;28;20198;-64
2022/02/10 17:14:14;;;;;;;19.33;15.60;;;7.20;99.90;;;8.28;75.02;98470.41;5198392;28;20222;-64
2022/02/10 17:20:11;;;;;;;14.67;13.00;;;7.20;99.90;;;8.28;75.32;98476.38;5198896;28;20264;-64
2022/02/10 17:25:37;;;;;;;12.30;11.10;;;7.10;99.90;;;8.17;75.65;98473.78;5195843;28;20211;-64
2022/02/10 17:28:11;;;;;;;17.50;15.57;;;7.10;99.90;;;8.13;76.03;98471.03;5198454;28;20221;-65
2022/02/10 17:31:09;;;;;;;15.63;13.73;;;7.10;99.90;;;8.08;76.05;98474.88;5188283;28;20193;-64
2022/02/10 17:34:03;;;;;;;18.30;16.40;;;7.10;99.90;;;8.00;76.88;98475.03;5196385;28;20309;-63
2022/02/10 17:36:45;;;;;;;15.33;13.83;;;7.10;99.90;;;7.95;76.54;98472.13;5199329;28;20208;-65
2022/02/10 17:42:36;;;;;;;13.47;11.73;;;7.10;99.90;;;8.04;76.69;98475.41;5164559;28;20297;-65
2022/02/10 17:45:35;;;;;;;12.53;11.33;;;7.00;99.90;;;8.13;76.37;98477.78;5196029;28;20288;-64
2022/02/10 17:53:54;;;;;;;17.00;14.90;;;7.00;99.90;;;8.05;76.37;98479.72;5196332;28;20444;-64
2022/02/10 17:56:29;;;;;;;23.53;19.07;;;7.00;99.90;;;7.97;76.25;98483.34;5191025;28;20205;-65
2022/02/10 17:59:04;;;;;;;23.20;18.43;;;7.00;99.90;;;7.92;76.39;98487.19;5197180;28;20722;-65
2022/02/10 18:01:37;;;;;;;15.13;12.37;;;7.00;99.90;;;8.02;75.61;98476.06;5196795;28;20217;-65
2022/02/10 18:04:15;;;;;;;18.30;14.80;;;7.00;99.90;;;7.92;75.70;98492.25;5192728;28;20189;-65
2022/02/10 18:06:53;;;;;;;14.77;13.37;;;7.00;99.90;;;7.94;75.65;98478.00;5194464;28;20212;-64
2022/02/10 18:09:54;;;;;;;14.53;13.13;;;7.00;99.90;;;7.94;75.71;98483.09;5195291;28;20217;-64
2022/02/10 18:15:22;;;;;;;14.10;12.80;;;7.10;99.90;;;8.11;74.54;98482.72;5194496;28;20587;-64
2022/02/10 18:18:01;;;;;;;13.77;12.23;;;7.00;99.90;;;7.98;75.27;98482.56;5197514;28;20280;-65
2022/02/10 18:20:39;;;;;;;13.00;11.10;;;7.00;99.90;;;7.90;75.56;98470.91;5196066;28;20693;-65
2022/02/10 18:23:17;;;;;;;13.60;12.17;;;7.10;99.90;;;7.86;75.87;98481.63;5201441;28;20204;-65
2022/02/10 18:25:58;;;;;;;12.53;11.30;;;7.00;99.90;;;7.84;76.16;98475.50;5199829;28;20569;-65
2022/02/10 18:28:57;;;;;;;12.97;11.53;;;7.00;99.90;;;7.83;76.20;98473.75;5202562;28;20573;-65
2022/02/10 19:01:30;;;;;;;10.10;9.10;;;6.90;99.90;;;7.76;75.01;98466.41;5204362;28;20194;-65
2022/02/10 19:11:49;;;;;;;10.33;9.40;;;6.90;99.90;;;7.73;74.09;98461.97;5186223;28;20209;-65
2022/02/10 19:14:22;;;;;;;9.70;8.73;;;6.90;99.90;;;7.76;73.86;98462.22;5198382;28;20216;-65
2022/02/10 19:16:56;;;;;;;10.00;9.00;;;6.90;99.90;;;7.77;73.53;98463.09;5197058;28;20676;-65
2022/02/10 19:19:29;;;;;;;9.20;8.30;;;6.90;99.90;;;7.76;73.03;98469.84;5209391;28;20224;-65
2022/02/10 19:22:02;;;;;;;9.90;8.47;;;6.90;99.90;;;7.79;72.89;98474.28;5203444;28;20217;-65
2022/02/10 19:24:35;;;;;;;9.53;8.63;;;7.00;99.90;;;7.80;73.62;98473.50;5194416;28;20206;-65
2022/02/10 19:27:09;;;;;;;12.87;11.63;;;6.90;99.90;;;7.79;73.79;98475.16;5201973;28;20333;-65
2022/02/10 19:29:42;;;;;;;13.33;11.93;;;6.90;99.90;;;7.77;73.92;98465.63;5195179;28;20235;-65
2022/02/10 19:32:18;;;;;;;13.30;11.13;;;6.90;99.90;;;7.73;74.44;98461.09;5192916;28;20237;-65
2022/02/10 19:34:53;;;;;;;11.10;9.87;;;6.80;99.90;;;7.69;74.62;98459.94;5194049;28;20199;-65
2022/02/10 19:37:29;;;;;;;9.97;9.03;;;6.80;99.90;;;7.65;73.98;98465.59;5201388;28;20578;-66
2022/02/10 19:40:04;;;;;;;10.43;9.07;;;6.80;99.90;;;7.56;74.09;98463.22;5197717;28;20313;-65
2022/02/10 19:42:41;;;;;;;9.90;8.90;;;6.60;99.90;;;7.48;74.28;98466.78;5197978;28;20217;-65
2022/02/10 19:45:14;;;;;;;9.90;9.10;;;6.60;99.90;;;7.45;74.44;98458.94;5200665;28;20329;-65
2022/02/10 19:47:49;;;;;;;11.63;10.53;;;6.60;99.90;;;7.39;75.05;98459.34;5204913;28;20209;-65
2022/02/10 19:50:26;;;;;;;11.43;10.43;;;6.50;99.90;;;7.32;75.25;98461.25;5203891;28;20201;-64
2022/02/10 19:53:04;;;;;;;11.30;10.20;;;6.40;99.90;;;7.25;75.15;98461.56;5196989;28;20217;-64
2022/02/10 19:55:41;;;;;;;10.87;9.77;;;6.30;99.90;;;7.20;75.23;98462.06;5194375;28;20209;-65
2022/02/10 19:58:19;;;;;;;10.23;9.33;;;6.30;99.90;;;7.18;75.16;98453.44;5201144;28;20237;-64
2022/02/10 20:00:57;;;;;;;11.10;10.20;;;6.20;99.90;;;7.15;75.94;98448.13;5198116;28;20205;-65
2022/02/10 20:03:34;;;;;;;10.70;9.23;;;6.30;99.90;;;7.16;76.05;98439.72;5195121;28;20206;-65
2022/02/10 20:06:07;;;;;;;10.30;9.30;;;6.20;99.90;;;7.09;75.76;98436.56;5198240;28;20216;-65
2022/02/10 20:08:40;;;;;;;10.43;9.43;;;6.10;99.90;;;7.04;76.30;98443.84;5192564;28;20697;-65
2022/02/10 20:11:13;;;;;;;10.20;9.33;;;6.20;99.90;;;7.00;76.30;98437.59;5200823;28;20564;-65
2022/02/10 20:13:46;;;;;;;9.73;8.63;;;6.10;99.90;;;6.97;76.38;98441.56;5194674;28;20205;-65
2022/02/10 20:16:19;;;;;;;9.70;8.70;;;6.10;99.90;;;6.95;76.20;98427.81;5195461;28;20205;-65
2022/02/10 20:18:53;;;;;;;8.63;7.83;;;6.10;99.90;;;6.96;76.88;98429.63;5201159;28;20236;-64
2022/02/10 20:21:27;;;;;;;8.60;7.83;;;6.10;99.90;;;6.96;76.58;98424.53;5200617;28;20208;-65
2022/02/10 20:24:00;;;;;;;7.70;7.00;;;6.10;99.90;;;6.95;76.63;98422.75;5204790;28;20216;-64
2022/02/10 20:26:34;;;;;;;7.67;7.07;;;6.10;99.90;;;6.94;76.57;98432.03;5198407;28;20223;-65
2022/02/10 20:29:08;;;;;;;6.97;6.47;;;6.10;99.90;;;6.91;76.61;98421.63;5202601;28;20226;-64
2022/02/10 20:31:41;;;;;;;6.77;6.17;;;6.00;99.90;;;6.83;76.30;98424.31;5201038;28;22271;-64
2022/02/10 20:34:17;;;;;;;7.07;6.50;;;6.00;99.90;;;6.82;76.74;98430.16;5197634;28;20292;-65
2022/02/10 20:36:51;;;;;;;6.73;6.17;;;5.90;99.90;;;6.83;77.54;98431.94;5200283;28;20208;-64
2022/02/10 20:39:27;;;;;;;7.90;7.20;;;5.90;99.90;;;6.81;77.27;98434.38;5201404;28;20222;-64
2022/02/10 20:42:04;;;;;;;7.30;6.70;;;6.00;99.90;;;6.82;77.21;98427.63;5202480;28;20194;-65
2022/02/10 20:44:41;;;;;;;7.47;6.87;;;6.00;99.90;;;6.84;77.91;98423.53;5203094;28;20201;-65
2022/02/10 20:47:18;;;;;;;8.43;7.63;;;6.00;99.90;;;6.86;77.71;98422.00;5201706;28;20211;-65
2022/02/10 20:49:53;;;;;;;8.23;7.53;;;6.00;99.90;;;6.88;78.03;98413.75;5208620;28;20629;-65
2022/02/10 20:52:28;;;;;;;9.27;8.47;;;6.00;99.90;;;6.84;76.70;98419.38;5206303;28;20603;-64
2022/02/10 20:55:01;;;;;;;8.17;7.37;;;6.00;99.90;;;6.87;77.09;98408.56;5195065;28;20656;-65
2022/02/10 20:57:34;;;;;;;7.63;7.03;;;6.00;99.90;;;6.91;77.11;98415.66;5206607;28;20576;-65
2022/02/10 21:00:10;;;;;;;7.27;6.70;;;6.10;99.90;;;6.95;77.58;98422.75;5197767;28;20217;-65
2022/02/10 21:02:45;;;;;;;6.30;5.87;;;6.10;99.90;;;6.96;77.29;98411.84;5205643;28;20250;-65
2022/02/10 21:05:30;;;;;;;6.50;5.83;;;6.10;99.90;;;6.97;76.79;98408.53;5195582;28;20657;-65
2022/02/10 21:08:10;;;;;;;6.83;6.23;;;6.20;99.90;;;6.99;77.23;98415.50;5197583;28;20251;-65
2022/02/10 21:10:43;;;;;;;10.30;9.30;;;6.20;99.90;;;7.06;77.60;98411.78;5193681;28;21886;-66
2022/02/10 21:13:16;;;;;;;14.70;13.20;;;6.10;99.90;;;7.02;77.77;98408.91;5204114;28;20206;-65
2022/02/10 21:15:50;;;;;;;13.80;12.40;;;6.00;99.90;;;6.95;78.12;98415.13;5190258;28;20200;-65
2022/02/10 21:18:24;;;;;;;12.47;11.33;;;6.10;99.90;;;6.91;78.53;98411.47;5196984;28;20240;-65
2022/02/10 21:21:05;;;;;;;11.93;10.17;;;6.00;99.90;;;6.89;78.86;98409.56;5199103;28;20204;-65
2022/02/10 21:23:45;;;;;;;11.00;10.00;;;6.00;99.90;;;6.85;78.37;98405.00;5195794;28;20199;-65
2022/02/10 21:26:25;;;;;;;11.60;10.50;;;6.00;99.90;;;6.85;79.12;98399.94;5188462;28;20206;-65
2022/02/10 21:29:02;;;;;;;11.37;10.27;;;6.00;99.90;;;6.86;78.68;98401.69;5191953;28;20599;-65
2022/02/10 21:31:42;;;;;;;9.73;8.80;;;6.00;99.90;;;6.84;79.10;98404.13;5199643;28;20205;-65
2022/02/10 21:34:22;;;;;;;10.27;9.33;;;6.00;99.90;;;6.80;78.86;98407.16;5190330;28;20201;-65
2022/02/10 21:37:04;;;;;;;10.63;9.70;;;5.90;99.90;;;6.73;79.33;98394.75;5201872;28;20201;-65
2022/02/10 21:39:50;;;;;;;9.17;8.27;;;5.80;99.90;;;6.73;78.78;98389.66;5202012;28;20223;-65
2022/02/10 21:48:20;;;;;;;10.33;8.63;;;5.90;99.90;;;6.71;79.22;98376.84;5206700;28;20214;-65
2022/02/10 21:57:00;;;;;;;9.20;8.40;;;5.80;99.90;;;6.62;79.91;98365.94;5193724;28;20199;-65
2022/02/10 21:59:49;;;;;;;9.00;8.10;;;5.80;99.90;;;6.62;80.23;98365.94;5193414;28;20232;-65
2022/02/10 22:11:14;;;;;;;25.23;14.73;;;5.80;99.90;;;6.80;80.11;98360.56;5206395;28;20323;-64
2022/02/10 22:17:15;;;;;;;70.63;27.47;;;5.80;99.90;;;6.77;80.01;98351.03;5149234;28;20264;-64
2022/02/10 22:19:56;;;;;;;30.17;16.23;;;5.70;99.90;;;6.65;81.22;98345.00;5197852;28;20228;-64
2022/02/10 22:22:35;;;;;;;11.10;7.93;;;5.70;99.90;;;6.58;80.18;98341.09;5206896;28;20208;-64
2022/02/10 22:25:13;;;;;;;11.60;8.80;;;5.60;99.90;;;6.39;81.71;98336.16;5197174;28;20198;-64
2022/02/10 22:27:50;;;;;;;12.23;8.10;;;5.60;99.90;;;6.45;80.65;98331.56;5199660;28;20228;-64
2022/02/10 22:30:32;;;;;;;8.60;7.57;;;5.60;99.90;;;6.52;81.16;98330.41;5199870;28;20210;-64
2022/02/10 22:33:17;;;;;;;14.60;9.10;;;5.60;99.90;;;6.55;80.82;98325.56;5201091;28;20506;-64
2022/02/10 22:35:51;;;;;;;17.97;10.50;;;5.70;99.90;;;6.57;81.06;98326.59;5201427;28;20206;-64
2022/02/10 22:38:23;;;;;;;13.97;9.43;;;5.80;99.90;;;6.60;81.37;98336.97;5202072;28;20225;-64
2022/02/10 22:41:03;;;;;;;13.50;9.20;;;5.80;99.90;;;6.63;81.05;98332.16;5199160;28;20672;-64
2022/02/10 22:43:37;;;;;;;15.00;10.17;;;5.80;99.90;;;6.67;81.18;98334.19;5210031;28;20201;-64
2022/02/10 22:46:11;;;;;;;16.60;12.33;;;5.80;99.90;;;6.71;81.25;98341.28;5200200;28;20650;-64
2022/02/10 22:48:46;;;;;;;19.57;15.93;;;5.80;99.90;;;6.81;80.20;98335.28;5209248;28;20292;-65
2022/02/10 22:51:22;;;;;;;60.40;25.40;;;5.70;99.90;;;6.74;79.90;98326.28;5190685;28;20222;-64
2022/02/10 22:53:55;;;;;;;40.50;18.83;;;5.60;99.90;;;6.66;80.36;98340.00;5194362;28;20203;-64
2022/02/10 22:56:29;;;;;;;29.87;15.73;;;5.60;99.90;;;6.69;80.61;98344.44;5188386;28;20203;-65
2022/02/10 22:59:07;;;;;;;14.20;10.27;;;5.60;99.90;;;6.79;80.80;98341.88;5198877;28;20488;-62
2022/02/10 23:01:41;;;;;;;10.23;9.20;;;5.60;99.90;;;6.72;80.53;98340.53;5199867;28;20281;-65
2022/02/10 23:04:14;;;;;;;15.43;11.67;;;5.60;99.90;;;6.57;81.54;98336.75;5198996;28;20214;-65
2022/02/10 23:06:50;;;;;;;13.53;10.60;;;5.60;99.90;;;6.56;81.76;98337.53;5197911;28;20205;-65
2022/02/10 23:09:29;;;;;;;14.77;11.33;;;5.60;99.90;;;6.55;81.87;98333.19;5192628;28;20268;-65
2022/02/10 23:12:02;;;;;;;15.53;11.90;;;5.60;99.90;;;6.53;81.96;98329.66;5200646;28;20292;-65
2022/02/10 23:14:36;;;;;;;25.73;15.53;;;5.70;99.90;;;6.49;81.86;98325.97;5200124;28;20199;-65
2022/02/10 23:17:09;;;;;;;26.63;15.33;;;5.60;99.90;;;6.51;82.60;98321.91;5202110;28;20190;-65
2022/02/10 23:19:42;;;;;;;38.37;20.13;;;5.60;99.90;;;6.54;81.93;98317.06;5202338;28;20220;-65
2022/02/10 23:22:15;;;;;;;39.63;20.63;;;5.60;99.90;;;6.61;81.92;98313.38;5200538;28;20202;-64
2022/02/10 23:24:48;;;;;;;27.17;16.67;;;5.60;99.90;;;6.58;82.34;98308.06;5196218;28;20220;-64
2022/02/10 23:27:21;;;;;;;32.00;17.13;;;5.60;99.90;;;6.57;82.22;98311.34;5193806;28;20202;-65
2022/02/10 23:29:55;;;;;;;30.50;17.27;;;5.60;99.90;;;6.58;81.82;98308.06;5199379;28;20229;-64
2022/02/10 23:32:28;;;;;;;28.33;15.67;;;5.60;99.90;;;6.58;82.31;98314.78;5192228;28;20239;-64
2022/02/10 23:35:07;;;;;;;15.93;11.67;;;5.60;99.90;;;6.66;81.77;98313.72;5198494;28;20217;-65
2022/02/10 23:37:40;;;;;;;59.07;25.67;;;5.60;99.90;;;6.64;81.96;98311.09;5192277;28;20200;-65
2022/02/10 23:40:13;;;;;;;29.17;15.90;;;5.60;99.90;;;6.57;82.17;98306.28;5198921;28;20203;-65
2022/02/10 23:42:51;;;;;;;14.60;10.70;;;5.60;99.90;;;6.62;81.94;98305.00;5194532;28;20202;-65
2022/02/10 23:45:28;;;;;;;15.10;10.73;;;5.50;99.90;;;6.57;82.67;98303.72;5200078;28;20198;-65
2022/02/10 23:48:01;;;;;;;11.07;9.40;;;5.50;99.90;;;6.55;82.84;98305.25;5198378;28;20233;-65
2022/02/10 23:50:36;;;;;;;10.20;9.20;;;5.50;99.90;;;6.50;82.88;98309.97;5202701;28;20857;-65
2022/02/10 23:53:09;;;;;;;9.57;8.60;;;5.50;99.90;;;6.63;81.80;98305.88;5201260;28;20203;-65